Private Wetterstation Sandau
Wetterdaten: Samstag, 21.07.2012
Datum Zeit Temp. A. Feuchte A. Luftdruck Regen Wind Richtung Richtung Taupunkt Windchill
21.07.2012 00:01 12,6 C 77 % 1016,4 hPa 0,0 l/m 4,0 km/h (1 Bft) W-SW 247 8,7 C 12,6 C
21.07.2012 00:06 12,6 C 77 % 1016,5 hPa 0,0 l/m 5,8 km/h (2 Bft) W-NW 292 8,7 C 12,6 C
21.07.2012 00:11 12,5 C 77 % 1016,6 hPa 0,0 l/m 0,0 km/h (0 Bft) W 270 8,6 C 12,5 C
21.07.2012 00:16 12,5 C 77 % 1016,7 hPa 0,0 l/m 0,0 km/h (0 Bft) W-SW 247 8,6 C 12,5 C
21.07.2012 00:21 12,4 C 77 % 1016,7 hPa 0,0 l/m 3,2 km/h (1 Bft) W-SW 247 8,5 C 12,4 C
21.07.2012 00:26 12,3 C 78 % 1016,8 hPa 0,0 l/m 3,2 km/h (1 Bft) W 270 8,6 C 12,3 C
21.07.2012 00:31 12,2 C 78 % 1016,7 hPa 0,0 l/m 2,9 km/h (1 Bft) W-NW 292 8,5 C 12,2 C
21.07.2012 00:36 12,1 C 78 % 1016,6 hPa 0,0 l/m 0,0 km/h (0 Bft) W 270 8,4 C 12,1 C
21.07.2012 00:41 11,9 C 78 % 1016,6 hPa 0,0 l/m 2,5 km/h (1 Bft) W-NW 292 8,2 C 11,9 C
21.07.2012 00:46 11,9 C 79 % 1016,8 hPa 0,0 l/m 2,2 km/h (1 Bft) W-NW 292 8,4 C 11,9 C
21.07.2012 00:51 11,8 C 79 % 1016,8 hPa 0,0 l/m 3,2 km/h (1 Bft) NW 315 8,3 C 11,8 C
21.07.2012 00:56 11,8 C 79 % 1016,8 hPa 0,0 l/m 0,0 km/h (0 Bft) N 360 8,3 C 11,8 C
21.07.2012 01:01 11,6 C 80 % 1016,9 hPa 0,0 l/m 0,0 km/h (0 Bft) W-NW 292 8,3 C 11,6 C
21.07.2012 01:06 11,5 C 80 % 1016,9 hPa 0,0 l/m 4,0 km/h (1 Bft) W-NW 292 8,2 C 11,5 C
21.07.2012 01:11 11,3 C 80 % 1016,9 hPa 0,0 l/m 0,0 km/h (0 Bft) W-NW 292 8,0 C 11,3 C
21.07.2012 01:16 11,3 C 81 % 1016,9 hPa 0,0 l/m 2,9 km/h (1 Bft) NW 315 8,2 C 11,3 C
21.07.2012 01:21 11,3 C 81 % 1016,9 hPa 0,0 l/m 0,0 km/h (0 Bft) NW 315 8,2 C 11,3 C
21.07.2012 01:26 11,1 C 81 % 1017,0 hPa 0,0 l/m 1,8 km/h (1 Bft) W-NW 292 8,0 C 11,1 C
21.07.2012 01:31 11,1 C 81 % 1017,0 hPa 0,0 l/m 1,1 km/h (1 Bft) W 270 8,0 C 11,1 C
21.07.2012 01:36 11,1 C 82 % 1016,9 hPa 0,0 l/m 0,0 km/h (0 Bft) W-NW 292 8,1 C 11,1 C
21.07.2012 01:41 11,0 C 82 % 1016,9 hPa 0,0 l/m 2,5 km/h (1 Bft) W-NW 292 8,0 C 11,0 C
21.07.2012 01:46 11,0 C 82 % 1016,9 hPa 0,0 l/m 4,7 km/h (1 Bft) W-SW 247 8,0 C 11,0 C
21.07.2012 01:51 11,1 C 82 % 1016,9 hPa 0,0 l/m 7,2 km/h (2 Bft) W-SW 247 8,1 C 11,1 C
21.07.2012 01:56 11,1 C 82 % 1016,8 hPa 0,0 l/m 2,2 km/h (1 Bft) W 270 8,1 C 11,1 C
21.07.2012 02:01 11,1 C 82 % 1017,0 hPa 0,0 l/m 1,8 km/h (1 Bft) W 270 8,1 C 11,1 C
21.07.2012 02:06 11,1 C 82 % 1017,1 hPa 0,0 l/m 1,4 km/h (1 Bft) W 270 8,1 C 11,1 C
21.07.2012 02:11 11,1 C 82 % 1017,0 hPa 0,0 l/m 7,9 km/h (2 Bft) W-SW 247 8,1 C 11,1 C
21.07.2012 02:16 11,1 C 82 % 1017,1 hPa 0,0 l/m 5,4 km/h (1 Bft) W-SW 247 8,1 C 11,1 C
21.07.2012 02:21 11,1 C 82 % 1017,1 hPa 0,0 l/m 3,2 km/h (1 Bft) W-SW 247 8,1 C 11,1 C
21.07.2012 02:26 11,0 C 82 % 1017,0 hPa 0,0 l/m 1,8 km/h (1 Bft) W 270 8,0 C 11,0 C
21.07.2012 02:31 10,9 C 82 % 1017,0 hPa 0,0 l/m 2,5 km/h (1 Bft) W-SW 247 7,9 C 10,9 C
21.07.2012 02:36 10,9 C 83 % 1016,9 hPa 0,0 l/m 3,6 km/h (1 Bft) W-NW 292 8,1 C 10,9 C
21.07.2012 02:41 10,8 C 83 % 1016,8 hPa 0,0 l/m 2,9 km/h (1 Bft) W-NW 292 8,0 C 10,8 C
21.07.2012 02:46 10,8 C 83 % 1016,8 hPa 0,0 l/m 0,0 km/h (0 Bft) W-SW 247 8,0 C 10,8 C
21.07.2012 02:51 10,7 C 83 % 1016,9 hPa 0,0 l/m 2,5 km/h (1 Bft) W 270 7,9 C 10,7 C
21.07.2012 02:56 10,7 C 83 % 1017,1 hPa 0,0 l/m 4,0 km/h (1 Bft) W-SW 247 7,9 C 10,7 C
21.07.2012 03:01 10,7 C 83 % 1017,1 hPa 0,0 l/m 4,0 km/h (1 Bft) W-SW 247 7,9 C 10,7 C
21.07.2012 03:06 10,6 C 83 % 1017,1 hPa 0,0 l/m 0,0 km/h (0 Bft) W-SW 247 7,8 C 10,6 C
21.07.2012 03:11 10,6 C 83 % 1017,1 hPa 0,0 l/m 5,4 km/h (1 Bft) W-SW 247 7,8 C 10,6 C
21.07.2012 03:16 10,5 C 83 % 1017,2 hPa 0,0 l/m 3,6 km/h (1 Bft) W-NW 292 7,7 C 10,5 C
21.07.2012 03:21 10,6 C 84 % 1017,2 hPa 0,0 l/m 0,0 km/h (0 Bft) W 270 8,0 C 10,6 C
21.07.2012 03:26 10,6 C 84 % 1017,2 hPa 0,0 l/m 4,0 km/h (1 Bft) W 270 8,0 C 10,6 C
21.07.2012 03:31 10,6 C 84 % 1017,3 hPa 0,0 l/m 0,0 km/h (0 Bft) W 270 8,0 C 10,6 C
21.07.2012 03:36 10,6 C 84 % 1017,1 hPa 0,0 l/m 3,6 km/h (1 Bft) W-NW 292 8,0 C 10,6 C
21.07.2012 03:41 10,6 C 84 % 1017,1 hPa 0,0 l/m 2,2 km/h (1 Bft) W-NW 292 8,0 C 10,6 C
21.07.2012 03:46 10,5 C 84 % 1017,2 hPa 0,0 l/m 0,0 km/h (0 Bft) W-SW 247 7,9 C 10,5 C
21.07.2012 03:51 10,5 C 84 % 1017,1 hPa 0,0 l/m 7,9 km/h (2 Bft) W 270 7,9 C 10,5 C
21.07.2012 03:56 10,4 C 84 % 1017,2 hPa 0,0 l/m 6,5 km/h (2 Bft) W-SW 247 7,8 C 10,4 C
21.07.2012 04:01 10,4 C 84 % 1017,1 hPa 0,0 l/m 4,0 km/h (1 Bft) W-SW 247 7,8 C 10,4 C
21.07.2012 04:06 10,3 C 84 % 1017,2 hPa 0,0 l/m 4,0 km/h (1 Bft) W 270 7,7 C 10,3 C
21.07.2012 04:11 10,3 C 84 % 1017,2 hPa 0,0 l/m 5,8 km/h (2 Bft) NW 315 7,7 C 10,3 C
21.07.2012 04:16 10,2 C 85 % 1017,2 hPa 0,0 l/m 4,0 km/h (1 Bft) W-NW 292 7,8 C 10,2 C
21.07.2012 04:21 10,1 C 85 % 1017,2 hPa 0,0 l/m 4,0 km/h (1 Bft) W 270 7,7 C 10,1 C
21.07.2012 04:26 10,1 C 85 % 1017,2 hPa 0,0 l/m 2,9 km/h (1 Bft) W-NW 292 7,7 C 10,1 C
21.07.2012 04:31 10,1 C 85 % 1017,2 hPa 0,0 l/m 2,9 km/h (1 Bft) W-NW 292 7,7 C 10,1 C
21.07.2012 04:36 10,0 C 85 % 1017,2 hPa 0,0 l/m 1,4 km/h (1 Bft) W-NW 292 7,6 C 10,0 C
21.07.2012 04:41 10,0 C 85 % 1017,3 hPa 0,0 l/m 4,0 km/h (1 Bft) W-NW 292 7,6 C 10,0 C
21.07.2012 04:46 10,1 C 85 % 1017,3 hPa 0,0 l/m 0,0 km/h (0 Bft) W-NW 292 7,7 C 10,1 C
21.07.2012 04:51 10,1 C 85 % 1017,3 hPa 0,0 l/m 5,0 km/h (1 Bft) NW 315 7,7 C 10,1 C
21.07.2012 04:56 10,1 C 85 % 1017,5 hPa 0,0 l/m 5,8 km/h (2 Bft) W-NW 292 7,7 C 10,1 C
21.07.2012 05:01 10,1 C 85 % 1017,5 hPa 0,0 l/m 2,5 km/h (1 Bft) W-NW 292 7,7 C 10,1 C
21.07.2012 05:06 10,2 C 85 % 1017,6 hPa 0,0 l/m 7,9 km/h (2 Bft) W-NW 292 7,8 C 10,2 C
21.07.2012 05:11 10,2 C 85 % 1017,6 hPa 0,0 l/m 0,0 km/h (0 Bft) W-NW 292 7,8 C 10,2 C
21.07.2012 05:16 10,3 C 85 % 1017,6 hPa 0,0 l/m 5,8 km/h (2 Bft) W 270 7,9 C 10,3 C
21.07.2012 05:21 10,3 C 85 % 1017,5 hPa 0,0 l/m 4,3 km/h (1 Bft) W-SW 247 7,9 C 10,3 C
21.07.2012 05:26 10,4 C 85 % 1017,7 hPa 0,0 l/m 5,8 km/h (2 Bft) W-SW 247 8,0 C 10,4 C
21.07.2012 05:31 10,4 C 85 % 1017,8 hPa 0,0 l/m 1,1 km/h (1 Bft) W 270 8,0 C 10,4 C
21.07.2012 05:36 10,4 C 85 % 1017,8 hPa 0,0 l/m 3,2 km/h (1 Bft) W 270 8,0 C 10,4 C
21.07.2012 05:41 10,4 C 85 % 1017,9 hPa 0,0 l/m 2,5 km/h (1 Bft) W-NW 292 8,0 C 10,4 C
21.07.2012 05:46 10,4 C 85 % 1017,9 hPa 0,0 l/m 3,2 km/h (1 Bft) W-NW 292 8,0 C 10,4 C
21.07.2012 05:51 10,5 C 85 % 1018,0 hPa 0,0 l/m 2,5 km/h (1 Bft) W-NW 292 8,1 C 10,5 C
21.07.2012 05:56 10,5 C 85 % 1017,9 hPa 0,0 l/m 2,5 km/h (1 Bft) SW 225 8,1 C 10,5 C
21.07.2012 06:01 10,6 C 85 % 1017,9 hPa 0,0 l/m 5,8 km/h (2 Bft) W-SW 247 8,2 C 10,6 C
21.07.2012 06:06 10,6 C 85 % 1018,0 hPa 0,0 l/m 6,1 km/h (2 Bft) W-NW 292 8,2 C 10,6 C
21.07.2012 06:11 10,6 C 85 % 1018,0 hPa 0,0 l/m 2,9 km/h (1 Bft) W-SW 247 8,2 C 10,6 C
21.07.2012 06:16 10,8 C 86 % 1018,2 hPa 0,0 l/m 4,0 km/h (1 Bft) W 270 8,6 C 10,8 C
21.07.2012 06:21 10,8 C 86 % 1018,0 hPa 0,0 l/m 2,9 km/h (1 Bft) W-NW 292 8,6 C 10,8 C
21.07.2012 06:26 10,9 C 85 % 1018,1 hPa 0,0 l/m 2,9 km/h (1 Bft) W-NW 292 8,5 C 10,9 C
21.07.2012 06:31 11,0 C 85 % 1018,2 hPa 0,0 l/m 2,9 km/h (1 Bft) W-NW 292 8,6 C 11,0 C
21.07.2012 06:36 11,2 C 85 % 1018,3 hPa 0,0 l/m 4,7 km/h (1 Bft) W-SW 247 8,8 C 11,2 C
21.07.2012 06:41 11,3 C 85 % 1018,3 hPa 0,0 l/m 8,6 km/h (2 Bft) W-SW 247 8,9 C 11,3 C
21.07.2012 06:46 11,4 C 85 % 1018,4 hPa 0,0 l/m 6,5 km/h (2 Bft) SW 225 9,0 C 11,4 C
21.07.2012 06:51 11,4 C 85 % 1018,3 hPa 0,0 l/m 10,8 km/h (2 Bft) W-SW 247 9,0 C 11,4 C
21.07.2012 06:56 11,5 C 84 % 1018,2 hPa 0,0 l/m 8,6 km/h (2 Bft) W-SW 247 8,9 C 11,5 C
21.07.2012 07:01 11,6 C 84 % 1018,3 hPa 0,0 l/m 2,2 km/h (1 Bft) SW 225 9,0 C 11,6 C
21.07.2012 07:06 11,6 C 84 % 1018,4 hPa 0,0 l/m 0,0 km/h (0 Bft) NW 315 9,0 C 11,6 C
21.07.2012 07:11 11,7 C 84 % 1018,5 hPa 0,0 l/m 0,0 km/h (0 Bft) W-NW 292 9,1 C 11,7 C
21.07.2012 07:16 11,8 C 84 % 1018,6 hPa 0,0 l/m 5,0 km/h (1 Bft) W 270 9,2 C 11,8 C
21.07.2012 07:21 11,8 C 84 % 1018,6 hPa 0,0 l/m 5,0 km/h (1 Bft) W-NW 292 9,2 C 11,8 C
21.07.2012 07:26 11,9 C 84 % 1018,6 hPa 0,0 l/m 4,0 km/h (1 Bft) W-NW 292 9,3 C 11,9 C
21.07.2012 07:31 12,1 C 83 % 1018,5 hPa 0,0 l/m 4,3 km/h (1 Bft) W-SW 247 9,3 C 12,1 C
21.07.2012 07:36 12,1 C 83 % 1018,6 hPa 0,0 l/m 4,0 km/h (1 Bft) NW 315 9,3 C 12,1 C
21.07.2012 07:41 12,3 C 82 % 1018,6 hPa 0,0 l/m 6,1 km/h (2 Bft) NW 315 9,3 C 12,3 C
21.07.2012 07:46 12,5 C 82 % 1018,7 hPa 0,0 l/m 5,0 km/h (1 Bft) W 270 9,5 C 12,5 C
21.07.2012 07:51 12,7 C 82 % 1018,7 hPa 0,0 l/m 9,7 km/h (2 Bft) N-NW 337 9,7 C 12,7 C
21.07.2012 07:56 12,9 C 81 % 1018,9 hPa 0,0 l/m 5,4 km/h (1 Bft) W-NW 292 9,7 C 12,9 C
21.07.2012 08:01 13,1 C 81 % 1019,0 hPa 0,0 l/m 2,5 km/h (1 Bft) W-SW 247 9,9 C 13,1 C
21.07.2012 08:06 13,2 C 80 % 1019,0 hPa 0,0 l/m 7,2 km/h (2 Bft) W 270 9,8 C 13,2 C
21.07.2012 08:11 13,3 C 80 % 1019,1 hPa 0,0 l/m 6,1 km/h (2 Bft) NW 315 9,9 C 13,3 C
21.07.2012 08:16 13,4 C 79 % 1019,1 hPa 0,0 l/m 5,4 km/h (1 Bft) W 270 9,8 C 13,4 C
21.07.2012 08:21 13,5 C 79 % 1019,2 hPa 0,0 l/m 4,7 km/h (1 Bft) NW 315 9,9 C 13,5 C
21.07.2012 08:26 13,6 C 79 % 1019,2 hPa 0,0 l/m 2,5 km/h (1 Bft) W-NW 292 10,0 C 13,6 C
21.07.2012 08:31 13,8 C 78 % 1019,2 hPa 0,0 l/m 2,2 km/h (1 Bft) W 270 10,0 C 13,8 C
21.07.2012 08:36 14,0 C 78 % 1019,3 hPa 0,0 l/m 7,2 km/h (2 Bft) N-NW 337 10,2 C 14,0 C
21.07.2012 08:41 14,1 C 77 % 1019,3 hPa 0,0 l/m 5,0 km/h (1 Bft) W 270 10,1 C 14,1 C
21.07.2012 08:46 14,4 C 77 % 1019,4 hPa 0,0 l/m 4,0 km/h (1 Bft) NW 315 10,4 C 14,4 C
21.07.2012 08:51 14,6 C 75 % 1019,5 hPa 0,0 l/m 7,2 km/h (2 Bft) N-NW 337 10,2 C 14,6 C
21.07.2012 08:56 14,9 C 75 % 1019,6 hPa 0,0 l/m 1,8 km/h (1 Bft) W 270 10,5 C 14,9 C
21.07.2012 09:01 15,6 C 74 % 1019,5 hPa 0,0 l/m 0,0 km/h (0 Bft) W-NW 292 11,0 C 15,6 C
21.07.2012 09:06 15,9 C 71 % 1019,5 hPa 0,0 l/m 9,0 km/h (2 Bft) W-NW 292 10,6 C 15,9 C
21.07.2012 09:11 16,1 C 70 % 1019,4 hPa 0,0 l/m 4,0 km/h (1 Bft) W-SW 247 10,6 C 16,1 C
21.07.2012 09:16 16,4 C 70 % 1019,3 hPa 0,0 l/m 3,2 km/h (1 Bft) W-NW 292 10,9 C 16,4 C
21.07.2012 09:21 16,9 C 68 % 1019,3 hPa 0,0 l/m 11,9 km/h (2 Bft) W 270 11,0 C 16,9 C
21.07.2012 09:26 17,2 C 67 % 1019,2 hPa 0,0 l/m 5,8 km/h (2 Bft) W 270 11,0 C 17,2 C
21.07.2012 09:31 17,4 C 65 % 1019,3 hPa 0,0 l/m 3,6 km/h (1 Bft) W 270 10,8 C 17,4 C
21.07.2012 09:36 17,8 C 64 % 1019,2 hPa 0,0 l/m 7,2 km/h (2 Bft) N-NW 337 10,9 C 17,8 C
21.07.2012 09:41 18,2 C 61 % 1019,3 hPa 0,0 l/m 9,7 km/h (2 Bft) NW 315 10,6 C 18,2 C
21.07.2012 09:46 17,9 C 60 % 1019,3 hPa 0,0 l/m 6,8 km/h (2 Bft) NW 315 10,0 C 17,9 C
21.07.2012 09:51 17,3 C 61 % 1019,4 hPa 0,0 l/m 9,0 km/h (2 Bft) NW 315 9,7 C 17,3 C
21.07.2012 09:56 16,9 C 62 % 1019,4 hPa 0,0 l/m 4,0 km/h (1 Bft) W-NW 292 9,6 C 16,9 C
21.07.2012 10:01 16,9 C 61 % 1019,3 hPa 0,0 l/m 9,4 km/h (2 Bft) NW 315 9,3 C 16,9 C
21.07.2012 10:06 16,8 C 62 % 1019,3 hPa 0,0 l/m 6,1 km/h (2 Bft) W 270 9,5 C 16,8 C
21.07.2012 10:11 16,3 C 61 % 1019,4 hPa 0,0 l/m 5,0 km/h (1 Bft) W-SW 247 8,8 C 16,3 C
21.07.2012 10:16 16,3 C 62 % 1019,4 hPa 0,0 l/m 8,6 km/h (2 Bft) NW 315 9,0 C 16,3 C
21.07.2012 10:21 16,5 C 62 % 1019,4 hPa 0,0 l/m 5,4 km/h (1 Bft) N-NW 337 9,2 C 16,5 C
21.07.2012 10:26 16,8 C 61 % 1019,4 hPa 0,0 l/m 14,4 km/h (3 Bft) NW 315 9,2 C 16,8 C
21.07.2012 10:31 16,4 C 60 % 1019,4 hPa 0,0 l/m 2,9 km/h (1 Bft) W 270 8,6 C 16,4 C
21.07.2012 10:36 16,3 C 62 % 1019,6 hPa 0,0 l/m 0,0 km/h (0 Bft) W-NW 292 9,0 C 16,3 C
21.07.2012 10:41 16,4 C 62 % 1019,5 hPa 0,0 l/m 3,2 km/h (1 Bft) W-NW 292 9,1 C 16,4 C
21.07.2012 10:46 16,6 C 61 % 1019,6 hPa 0,0 l/m 3,2 km/h (1 Bft) W-NW 292 9,0 C 16,6 C
21.07.2012 10:51 17,8 C 59 % 1019,6 hPa 0,0 l/m 6,8 km/h (2 Bft) S-SW 202 9,7 C 17,8 C
21.07.2012 10:56 18,2 C 54 % 1019,5 hPa 0,0 l/m 7,9 km/h (2 Bft) W-SW 247 8,7 C 18,2 C
21.07.2012 11:01 18,1 C 53 % 1019,5 hPa 0,0 l/m 16,2 km/h (3 Bft) NW 315 8,4 C 18,1 C
21.07.2012 11:06 18,2 C 54 % 1019,5 hPa 0,0 l/m 6,8 km/h (2 Bft) W 270 8,7 C 18,2 C
21.07.2012 11:11 18,0 C 55 % 1019,6 hPa 0,0 l/m 2,9 km/h (1 Bft) W 270 8,8 C 18,0 C
21.07.2012 11:16 17,6 C 55 % 1019,5 hPa 0,0 l/m 8,3 km/h (2 Bft) W-NW 292 8,5 C 17,6 C
21.07.2012 11:21 17,4 C 57 % 1019,6 hPa 0,0 l/m 10,1 km/h (2 Bft) SW 225 8,8 C 17,4 C
21.07.2012 11:26 18,4 C 56 % 1019,5 hPa 0,0 l/m 5,4 km/h (1 Bft) W-SW 247 9,5 C 18,4 C
21.07.2012 11:31 18,2 C 54 % 1019,4 hPa 0,0 l/m 5,8 km/h (2 Bft) W-NW 292 8,7 C 18,2 C
21.07.2012 11:36 17,6 C 55 % 1019,4 hPa 0,0 l/m 10,1 km/h (2 Bft) NW 315 8,5 C 17,6 C
21.07.2012 11:41 17,3 C 56 % 1019,4 hPa 0,0 l/m 7,6 km/h (2 Bft) N-NW 337 8,4 C 17,3 C
21.07.2012 11:46 17,1 C 56 % 1019,5 hPa 0,0 l/m 5,8 km/h (2 Bft) NW 315 8,3 C 17,1 C
21.07.2012 11:51 16,9 C 57 % 1019,4 hPa 0,0 l/m 8,6 km/h (2 Bft) W-NW 292 8,3 C 16,9 C
21.07.2012 11:56 16,9 C 56 % 1019,4 hPa 0,0 l/m 2,5 km/h (1 Bft) W 270 8,1 C 16,9 C
21.07.2012 12:01 17,2 C 57 % 1019,5 hPa 0,0 l/m 14,8 km/h (3 Bft) NW 315 8,6 C 17,2 C
21.07.2012 12:06 17,3 C 56 % 1019,3 hPa 0,0 l/m 16,6 km/h (3 Bft) W-NW 292 8,4 C 17,3 C
21.07.2012 12:11 17,6 C 56 % 1019,3 hPa 0,0 l/m 6,1 km/h (2 Bft) NW 315 8,7 C 17,6 C
21.07.2012 12:16 18,8 C 53 % 1019,5 hPa 0,0 l/m 12,2 km/h (2 Bft) W 270 9,0 C 18,8 C
21.07.2012 12:21 19,1 C 51 % 1019,5 hPa 0,0 l/m 15,5 km/h (3 Bft) W-NW 292 8,7 C 19,1 C
21.07.2012 12:26 19,2 C 51 % 1019,5 hPa 0,0 l/m 2,5 km/h (1 Bft) NO 45 8,8 C 19,2 C
21.07.2012 12:31 19,2 C 51 % 1019,3 hPa 0,0 l/m 11,5 km/h (2 Bft) N-NW 337 8,8 C 19,2 C
21.07.2012 12:36 19,3 C 50 % 1019,4 hPa 0,0 l/m 6,1 km/h (2 Bft) W-NW 292 8,6 C 19,3 C
21.07.2012 12:41 19,7 C 50 % 1019,3 hPa 0,0 l/m 7,2 km/h (2 Bft) NW 315 9,0 C 19,7 C
21.07.2012 12:46 19,9 C 50 % 1019,3 hPa 0,0 l/m 7,9 km/h (2 Bft) N 360 9,2 C 19,9 C
21.07.2012 12:51 20,4 C 49 % 1019,3 hPa 0,0 l/m 8,6 km/h (2 Bft) W-NW 292 9,3 C 20,4 C
21.07.2012 12:56 20,7 C 48 % 1019,3 hPa 0,0 l/m 2,5 km/h (1 Bft) N-NO 22 9,3 C 20,7 C
21.07.2012 13:01 19,9 C 47 % 1019,3 hPa 0,0 l/m 8,3 km/h (2 Bft) N-NO 22 8,3 C 19,9 C
21.07.2012 13:06 19,2 C 49 % 1019,2 hPa 0,0 l/m 4,0 km/h (1 Bft) N-NW 337 8,2 C 19,2 C
21.07.2012 13:11 18,7 C 51 % 1019,6 hPa 0,0 l/m 9,7 km/h (2 Bft) W-NW 292 8,4 C 18,7 C
21.07.2012 13:16 18,4 C 51 % 1019,6 hPa 0,0 l/m 18,0 km/h (3 Bft) N-NW 337 8,1 C 18,4 C
21.07.2012 13:21 17,9 C 52 % 1019,6 hPa 0,0 l/m 10,4 km/h (2 Bft) NO 45 7,9 C 17,9 C
21.07.2012 13:26 17,6 C 55 % 1019,6 hPa 0,0 l/m 4,7 km/h (1 Bft) N-NW 337 8,5 C 17,6 C
21.07.2012 13:31 17,7 C 55 % 1019,7 hPa 0,0 l/m 7,9 km/h (2 Bft) N-NW 337 8,5 C 17,7 C
21.07.2012 13:36 17,6 C 54 % 1019,7 hPa 0,0 l/m 1,1 km/h (1 Bft) N-NO 22 8,2 C 17,6 C
21.07.2012 13:41 17,8 C 55 % 1019,5 hPa 0,0 l/m 6,1 km/h (2 Bft) NW 315 8,6 C 17,8 C
21.07.2012 13:46 17,8 C 54 % 1019,5 hPa 0,0 l/m 4,7 km/h (1 Bft) N 360 8,4 C 17,8 C
21.07.2012 13:51 17,7 C 55 % 1019,5 hPa 0,0 l/m 6,1 km/h (2 Bft) W-NW 292 8,5 C 17,7 C
21.07.2012 13:56 17,9 C 55 % 1019,5 hPa 0,0 l/m 13,3 km/h (3 Bft) W-NW 292 8,7 C 17,9 C
21.07.2012 14:01 17,9 C 54 % 1019,6 hPa 0,0 l/m 11,5 km/h (2 Bft) NW 315 8,5 C 17,9 C
21.07.2012 14:06 18,3 C 53 % 1019,6 hPa 0,0 l/m 5,8 km/h (2 Bft) NW 315 8,6 C 18,3 C
21.07.2012 14:11 18,7 C 52 % 1019,6 hPa 0,0 l/m 8,6 km/h (2 Bft) W-NW 292 8,6 C 18,7 C
21.07.2012 14:16 19,8 C 50 % 1019,5 hPa 0,0 l/m 6,5 km/h (2 Bft) NW 315 9,1 C 19,8 C
21.07.2012 14:21 19,9 C 48 % 1019,6 hPa 0,0 l/m 8,6 km/h (2 Bft) N 360 8,6 C 19,9 C
21.07.2012 14:26 18,3 C 52 % 1019,7 hPa 0,0 l/m 14,4 km/h (3 Bft) N 360 8,3 C 18,3 C
21.07.2012 14:31 17,4 C 56 % 1019,7 hPa 0,0 l/m 11,9 km/h (2 Bft) N-NO 22 8,5 C 17,4 C
21.07.2012 14:36 17,0 C 57 % 1019,8 hPa 0,0 l/m 6,5 km/h (2 Bft) NO 45 8,4 C 17,0 C
21.07.2012 14:41 16,8 C 59 % 1019,8 hPa 0,0 l/m 6,1 km/h (2 Bft) N-NW 337 8,7 C 16,8 C
21.07.2012 14:46 16,9 C 59 % 1019,9 hPa 0,0 l/m 6,5 km/h (2 Bft) N-NO 22 8,8 C 16,9 C
21.07.2012 14:51 17,1 C 59 % 1019,9 hPa 0,0 l/m 7,9 km/h (2 Bft) N-NO 22 9,0 C 17,1 C
21.07.2012 14:56 17,3 C 58 % 1020,0 hPa 0,0 l/m 15,1 km/h (3 Bft) N-NW 337 9,0 C 17,3 C
21.07.2012 15:01 17,6 C 57 % 1020,0 hPa 0,0 l/m 8,3 km/h (2 Bft) W-SW 247 9,0 C 17,6 C
21.07.2012 15:06 18,3 C 56 % 1020,0 hPa 0,0 l/m 10,1 km/h (2 Bft) N 360 9,4 C 18,3 C
21.07.2012 15:11 19,2 C 54 % 1020,0 hPa 0,0 l/m 9,4 km/h (2 Bft) NW 315 9,7 C 19,2 C
21.07.2012 15:16 19,9 C 52 % 1020,0 hPa 0,0 l/m 12,6 km/h (3 Bft) N-NW 337 9,7 C 19,9 C
21.07.2012 15:21 20,1 C 50 % 1019,9 hPa 0,0 l/m 14,0 km/h (3 Bft) W-SW 247 9,3 C 20,1 C
21.07.2012 15:26 20,2 C 48 % 1019,8 hPa 0,0 l/m 11,9 km/h (2 Bft) W 270 8,8 C 20,2 C
21.07.2012 15:31 20,4 C 50 % 1019,7 hPa 0,0 l/m 23,0 km/h (4 Bft) W-SW 247 9,6 C 20,4 C
21.07.2012 15:36 20,4 C 48 % 1019,8 hPa 0,0 l/m 4,3 km/h (1 Bft) W 270 9,0 C 20,4 C
21.07.2012 15:41 20,6 C 49 % 1019,8 hPa 0,0 l/m 5,0 km/h (1 Bft) W-SW 247 9,5 C 20,6 C
21.07.2012 15:46 20,9 C 47 % 1019,8 hPa 0,0 l/m 2,9 km/h (1 Bft) O-NO 67 9,2 C 20,9 C
21.07.2012 15:51 20,9 C 45 % 1019,8 hPa 0,0 l/m 4,0 km/h (1 Bft) W-NW 292 8,5 C 20,9 C
21.07.2012 15:56 21,1 C 46 % 1019,7 hPa 0,0 l/m 3,2 km/h (1 Bft) NW 315 9,0 C 21,1 C
21.07.2012 16:01 21,2 C 45 % 1019,9 hPa 0,0 l/m 13,3 km/h (3 Bft) W-NW 292 8,8 C 21,2 C
21.07.2012 16:06 20,9 C 46 % 1019,9 hPa 0,0 l/m 27,0 km/h (4 Bft) W-NW 292 8,8 C 20,9 C
21.07.2012 16:11 20,3 C 45 % 1020,0 hPa 0,0 l/m 8,3 km/h (2 Bft) W-NW 292 8,0 C 20,3 C
21.07.2012 16:16 20,5 C 45 % 1020,0 hPa 0,0 l/m 14,4 km/h (3 Bft) NW 315 8,2 C 20,5 C
21.07.2012 16:21 21,0 C 44 % 1019,9 hPa 0,0 l/m 18,4 km/h (3 Bft) NW 315 8,3 C 21,0 C
21.07.2012 16:26 21,2 C 42 % 1020,0 hPa 0,0 l/m 10,1 km/h (2 Bft) N 360 7,8 C 21,2 C
21.07.2012 16:31 21,1 C 43 % 1020,0 hPa 0,0 l/m 19,8 km/h (3 Bft) N-NW 337 8,0 C 21,1 C
21.07.2012 16:36 21,3 C 43 % 1020,0 hPa 0,0 l/m 12,6 km/h (3 Bft) NW 315 8,2 C 21,3 C
21.07.2012 16:41 21,6 C 44 % 1020,2 hPa 0,0 l/m 8,3 km/h (2 Bft) W-NW 292 8,8 C 21,6 C
21.07.2012 16:46 21,8 C 44 % 1020,1 hPa 0,0 l/m 14,0 km/h (3 Bft) NW 315 9,0 C 21,8 C
21.07.2012 16:51 21,9 C 44 % 1020,4 hPa 0,0 l/m 18,4 km/h (3 Bft) N-NW 337 9,1 C 21,9 C
21.07.2012 16:56 21,4 C 44 % 1020,4 hPa 0,0 l/m 13,0 km/h (3 Bft) NW 315 8,6 C 21,4 C
21.07.2012 17:01 20,9 C 45 % 1020,4 hPa 0,0 l/m 10,1 km/h (2 Bft) W-SW 247 8,5 C 20,9 C
21.07.2012 17:06 21,0 C 44 % 1020,4 hPa 0,0 l/m 11,9 km/h (2 Bft) N-NW 337 8,3 C 21,0 C
21.07.2012 17:11 20,9 C 45 % 1020,5 hPa 0,0 l/m 7,2 km/h (2 Bft) W-NW 292 8,5 C 20,9 C
21.07.2012 17:16 20,2 C 45 % 1020,5 hPa 0,0 l/m 0,0 km/h (0 Bft) W-NW 292 7,9 C 20,2 C
21.07.2012 17:21 19,6 C 48 % 1020,4 hPa 0,0 l/m 9,0 km/h (2 Bft) N 360 8,3 C 19,6 C
21.07.2012 17:26 19,2 C 49 % 1020,5 hPa 0,0 l/m 5,8 km/h (2 Bft) N-NO 22 8,2 C 19,2 C
21.07.2012 17:31 18,9 C 50 % 1020,6 hPa 0,0 l/m 20,5 km/h (4 Bft) N-NW 337 8,2 C 18,9 C
21.07.2012 17:36 18,6 C 51 % 1020,6 hPa 0,0 l/m 5,8 km/h (2 Bft) W-NW 292 8,3 C 18,6 C
21.07.2012 17:41 18,3 C 50 % 1020,7 hPa 0,0 l/m 6,5 km/h (2 Bft) NW 315 7,7 C 18,3 C
21.07.2012 17:46 18,3 C 49 % 1020,7 hPa 0,0 l/m 5,8 km/h (2 Bft) W 270 7,4 C 18,3 C
21.07.2012 17:51 18,3 C 49 % 1020,8 hPa 0,0 l/m 7,6 km/h (2 Bft) N-NW 337 7,4 C 18,3 C
21.07.2012 17:56 18,5 C 49 % 1020,9 hPa 0,0 l/m 15,8 km/h (3 Bft) NW 315 7,6 C 18,5 C
21.07.2012 18:01 19,2 C 49 % 1020,6 hPa 0,0 l/m 5,4 km/h (1 Bft) SW 225 8,2 C 19,2 C
21.07.2012 18:06 19,7 C 48 % 1020,6 hPa 0,0 l/m 3,2 km/h (1 Bft) SW 225 8,4 C 19,7 C
21.07.2012 18:11 20,2 C 48 % 1020,6 hPa 0,0 l/m 7,6 km/h (2 Bft) SW 225 8,8 C 20,2 C
21.07.2012 18:16 20,4 C 46 % 1020,6 hPa 0,0 l/m 20,5 km/h (4 Bft) W-SW 247 8,4 C 20,4 C
21.07.2012 18:21 20,3 C 47 % 1020,6 hPa 0,0 l/m 8,6 km/h (2 Bft) W 270 8,6 C 20,3 C
21.07.2012 18:26 20,6 C 44 % 1020,8 hPa 0,0 l/m 11,9 km/h (2 Bft) W-NW 292 7,9 C 20,6 C
21.07.2012 18:31 20,8 C 46 % 1020,7 hPa 0,0 l/m 17,3 km/h (3 Bft) W-NW 292 8,8 C 20,8 C
21.07.2012 18:36 20,2 C 47 % 1020,9 hPa 0,0 l/m 7,6 km/h (2 Bft) W-NW 292 8,5 C 20,2 C
21.07.2012 18:41 19,9 C 48 % 1020,8 hPa 0,0 l/m 6,8 km/h (2 Bft) W 270 8,6 C 19,9 C
21.07.2012 18:46 19,8 C 48 % 1020,8 hPa 0,0 l/m 4,0 km/h (1 Bft) NW 315 8,5 C 19,8 C
21.07.2012 18:51 19,6 C 48 % 1020,8 hPa 0,0 l/m 4,7 km/h (1 Bft) NW 315 8,3 C 19,6 C
21.07.2012 18:56 19,2 C 49 % 1021,0 hPa 0,0 l/m 12,6 km/h (3 Bft) NW 315 8,2 C 19,2 C
21.07.2012 19:01 18,9 C 48 % 1021,0 hPa 0,0 l/m 14,8 km/h (3 Bft) NW 315 7,6 C 18,9 C
21.07.2012 19:06 19,1 C 48 % 1021,0 hPa 0,0 l/m 16,6 km/h (3 Bft) NW 315 7,8 C 19,1 C
21.07.2012 19:11 19,3 C 48 % 1021,0 hPa 0,0 l/m 3,6 km/h (1 Bft) W-NW 292 8,0 C 19,3 C
21.07.2012 19:16 19,4 C 48 % 1021,0 hPa 0,0 l/m 12,6 km/h (3 Bft) W 270 8,1 C 19,4 C
21.07.2012 19:21 19,6 C 48 % 1021,0 hPa 0,0 l/m 6,5 km/h (2 Bft) W-NW 292 8,3 C 19,6 C
21.07.2012 19:26 19,6 C 48 % 1021,0 hPa 0,0 l/m 8,6 km/h (2 Bft) NW 315 8,3 C 19,6 C
21.07.2012 19:31 19,4 C 47 % 1021,0 hPa 0,0 l/m 3,2 km/h (1 Bft) W-NW 292 7,8 C 19,4 C
21.07.2012 19:36 19,4 C 47 % 1021,1 hPa 0,0 l/m 4,7 km/h (1 Bft) W-NW 292 7,8 C 19,4 C
21.07.2012 19:41 19,3 C 48 % 1021,2 hPa 0,0 l/m 2,5 km/h (1 Bft) N 360 8,0 C 19,3 C
21.07.2012 19:46 19,3 C 48 % 1021,2 hPa 0,0 l/m 11,9 km/h (2 Bft) N-NW 337 8,0 C 19,3 C
21.07.2012 19:51 19,4 C 48 % 1021,3 hPa 0,0 l/m 10,8 km/h (2 Bft) NW 315 8,1 C 19,4 C
21.07.2012 19:56 19,8 C 47 % 1021,1 hPa 0,0 l/m 4,0 km/h (1 Bft) N-NO 22 8,2 C 19,8 C
21.07.2012 20:01 19,9 C 45 % 1021,1 hPa 0,0 l/m 6,1 km/h (2 Bft) N-NO 22 7,6 C 19,9 C
21.07.2012 20:06 19,3 C 46 % 1021,2 hPa 0,0 l/m 11,9 km/h (2 Bft) N 360 7,4 C 19,3 C
21.07.2012 20:11 18,5 C 49 % 1021,2 hPa 0,0 l/m 13,7 km/h (3 Bft) NW 315 7,6 C 18,5 C
21.07.2012 20:16 18,5 C 51 % 1021,3 hPa 0,0 l/m 2,2 km/h (1 Bft) NW 315 8,2 C 18,5 C
21.07.2012 20:21 18,6 C 51 % 1021,4 hPa 0,0 l/m 2,5 km/h (1 Bft) NW 315 8,3 C 18,6 C
21.07.2012 20:26 18,3 C 52 % 1021,4 hPa 0,0 l/m 5,8 km/h (2 Bft) W-NW 292 8,3 C 18,3 C
21.07.2012 20:31 17,7 C 54 % 1021,4 hPa 0,0 l/m 8,3 km/h (2 Bft) NW 315 8,3 C 17,7 C
21.07.2012 20:36 17,2 C 55 % 1021,6 hPa 0,0 l/m 7,6 km/h (2 Bft) N-NW 337 8,1 C 17,2 C
21.07.2012 20:41 16,9 C 56 % 1021,7 hPa 0,0 l/m 3,2 km/h (1 Bft) N 360 8,1 C 16,9 C
21.07.2012 20:46 16,5 C 57 % 1021,7 hPa 0,0 l/m 4,7 km/h (1 Bft) N-NW 337 8,0 C 16,5 C
21.07.2012 20:51 16,3 C 58 % 1021,9 hPa 0,0 l/m 6,8 km/h (2 Bft) N-NO 22 8,0 C 16,3 C
21.07.2012 20:56 16,1 C 59 % 1021,8 hPa 0,0 l/m 5,0 km/h (1 Bft) N-NW 337 8,1 C 16,1 C
21.07.2012 21:01 15,9 C 60 % 1021,9 hPa 0,0 l/m 9,4 km/h (2 Bft) NW 315 8,1 C 15,9 C
21.07.2012 21:06 15,6 C 60 % 1021,9 hPa 0,0 l/m 4,3 km/h (1 Bft) N-NW 337 7,9 C 15,6 C
21.07.2012 21:11 15,4 C 61 % 1022,1 hPa 0,0 l/m 2,5 km/h (1 Bft) NW 315 7,9 C 15,4 C
21.07.2012 21:16 15,2 C 62 % 1022,1 hPa 0,0 l/m 2,9 km/h (1 Bft) NW 315 8,0 C 15,2 C
21.07.2012 21:21 14,9 C 62 % 1022,1 hPa 0,0 l/m 3,2 km/h (1 Bft) NW 315 7,7 C 14,9 C
21.07.2012 21:26 14,9 C 63 % 1022,2 hPa 0,0 l/m 1,4 km/h (1 Bft) NW 315 7,9 C 14,9 C
21.07.2012 21:31 14,7 C 64 % 1022,2 hPa 0,0 l/m 2,9 km/h (1 Bft) NW 315 8,0 C 14,7 C
21.07.2012 21:36 14,4 C 64 % 1022,3 hPa 0,0 l/m 2,5 km/h (1 Bft) N-NW 337 7,7 C 14,4 C
21.07.2012 21:41 14,3 C 65 % 1022,4 hPa 0,0 l/m 2,2 km/h (1 Bft) W-NW 292 7,8 C 14,3 C
21.07.2012 21:46 14,1 C 66 % 1022,5 hPa 0,0 l/m 4,3 km/h (1 Bft) NW 315 7,8 C 14,1 C
21.07.2012 21:51 14,1 C 66 % 1022,4 hPa 0,0 l/m 0,0 km/h (0 Bft) NW 315 7,8 C 14,1 C
21.07.2012 21:56 13,9 C 66 % 1022,5 hPa 0,0 l/m 5,0 km/h (1 Bft) N-NW 337 7,7 C 13,9 C
21.07.2012 22:01 13,8 C 67 % 1022,5 hPa 0,0 l/m 5,0 km/h (1 Bft) NW 315 7,8 C 13,8 C
21.07.2012 22:06 13,8 C 67 % 1022,5 hPa 0,0 l/m 2,5 km/h (1 Bft) W-NW 292 7,8 C 13,8 C
21.07.2012 22:11 13,6 C 67 % 1022,6 hPa 0,0 l/m 3,6 km/h (1 Bft) NW 315 7,6 C 13,6 C
21.07.2012 22:16 13,6 C 67 % 1022,7 hPa 0,0 l/m 0,0 km/h (0 Bft) NW 315 7,6 C 13,6 C
21.07.2012 22:21 13,6 C 67 % 1022,7 hPa 0,0 l/m 5,0 km/h (1 Bft) NW 315 7,6 C 13,6 C
21.07.2012 22:26 13,6 C 68 % 1022,7 hPa 0,0 l/m 2,2 km/h (1 Bft) W-NW 292 7,8 C 13,6 C
21.07.2012 22:31 13,5 C 68 % 1022,7 hPa 0,0 l/m 3,2 km/h (1 Bft) W-NW 292 7,7 C 13,5 C
21.07.2012 22:36 13,4 C 69 % 1022,9 hPa 0,0 l/m 2,5 km/h (1 Bft) W-NW 292 7,8 C 13,4 C
21.07.2012 22:41 13,3 C 69 % 1022,9 hPa 0,0 l/m 0,0 km/h (0 Bft) NW 315 7,7 C 13,3 C
21.07.2012 22:46 13,3 C 70 % 1022,9 hPa 0,0 l/m 0,0 km/h (0 Bft) W 270 7,9 C 13,3 C
21.07.2012 22:51 13,2 C 70 % 1023,0 hPa 0,0 l/m 4,3 km/h (1 Bft) W-NW 292 7,9 C 13,2 C
21.07.2012 22:56 13,1 C 70 % 1023,1 hPa 0,0 l/m 3,6 km/h (1 Bft) W-NW 292 7,8 C 13,1 C
21.07.2012 23:01 13,1 C 70 % 1023,0 hPa 0,0 l/m 7,2 km/h (2 Bft) NW 315 7,8 C 13,1 C
21.07.2012 23:06 13,1 C 70 % 1023,1 hPa 0,0 l/m 4,0 km/h (1 Bft) W-NW 292 7,8 C 13,1 C
21.07.2012 23:11 13,0 C 70 % 1023,2 hPa 0,0 l/m 4,0 km/h (1 Bft) NW 315 7,7 C 13,0 C
21.07.2012 23:16 12,9 C 71 % 1023,2 hPa 0,0 l/m 6,1 km/h (2 Bft) NW 315 7,8 C 12,9 C
21.07.2012 23:21 12,8 C 71 % 1023,3 hPa 0,0 l/m 4,3 km/h (1 Bft) W-NW 292 7,7 C 12,8 C
21.07.2012 23:26 12,6 C 71 % 1023,4 hPa 0,0 l/m 1,8 km/h (1 Bft) W-NW 292 7,5 C 12,6 C
21.07.2012 23:31 12,5 C 72 % 1023,3 hPa 0,0 l/m 5,4 km/h (1 Bft) W-NW 292 7,6 C 12,5 C
21.07.2012 23:36 12,4 C 72 % 1023,5 hPa 0,0 l/m 4,0 km/h (1 Bft) W-NW 292 7,5 C 12,4 C
21.07.2012 23:41 12,3 C 73 % 1023,6 hPa 0,0 l/m 3,2 km/h (1 Bft) W 270 7,6 C 12,3 C
21.07.2012 23:46 12,3 C 73 % 1023,6 hPa 0,0 l/m 3,6 km/h (1 Bft) NW 315 7,6 C 12,3 C
21.07.2012 23:51 12,3 C 73 % 1023,5 hPa 0,0 l/m 4,7 km/h (1 Bft) NW 315 7,6 C 12,3 C
21.07.2012 23:56 12,2 C 73 % 1023,5 hPa 0,0 l/m 1,4 km/h (1 Bft) W 270 7,5 C 12,2 C
_ Min-Zeit 04:36 16:26 00:01 - 00:11 - - 20:06 04:36
Minimum _ 10,0 C 42 % 1016,4 hPa - 0,0 km/h (0 Bft) - - 7,4 C 10,0 C
_ Max-Zeit 16:51 06:16 23:41 00:01 16:06 - - 09:26 16:51
Maximum _ 21,9 C 86 % 1023,6 hPa 0,0 l/m 27,0 km/h
W-NW (4 Bft)
- - 11,0 C 21,9 C
Durchschnitt _ 15,3 C 66 % 1019,5 hPa #0,0 l/m 6,0 km/h (2 Bft) W-NW - 8,5 C 15,3 C
(c) by David Heller